sensor_id;sensor_type;location;lat;lon;timestamp;P1;durP1;ratioP1;P2;durP2;ratioP2
68108;SDS011;54893;49.864;19.084;2023-03-03T00:03:56;161.35;;;55.17;;
68108;SDS011;54893;49.864;19.084;2023-03-03T00:08:56;174.30;;;63.47;;
68108;SDS011;54893;49.864;19.084;2023-03-03T00:13:57;163.20;;;57.83;;
68108;SDS011;54893;49.864;19.084;2023-03-03T00:18:57;150.90;;;54.23;;
68108;SDS011;54893;49.864;19.084;2023-03-03T00:24:10;150.88;;;53.65;;
68108;SDS011;54893;49.864;19.084;2023-03-03T00:34:32;130.98;;;47.85;;
68108;SDS011;54893;49.864;19.084;2023-03-03T00:39:36;149.53;;;56.13;;
68108;SDS011;54893;49.864;19.084;2023-03-03T00:44:39;138.50;;;47.45;;
68108;SDS011;54893;49.864;19.084;2023-03-03T00:49:43;129.23;;;46.27;;
68108;SDS011;54893;49.864;19.084;2023-03-03T00:54:44;115.87;;;41.23;;
68108;SDS011;54893;49.864;19.084;2023-03-03T00:59:44;130.68;;;46.75;;
68108;SDS011;54893;49.864;19.084;2023-03-03T01:04:47;134.37;;;46.17;;
68108;SDS011;54893;49.864;19.084;2023-03-03T01:09:50;137.10;;;52.25;;
68108;SDS011;54893;49.864;19.084;2023-03-03T01:14:50;158.70;;;59.30;;
68108;SDS011;54893;49.864;19.084;2023-03-03T01:19:53;133.27;;;51.10;;
68108;SDS011;54893;49.864;19.084;2023-03-03T01:24:54;136.57;;;47.43;;
68108;SDS011;54893;49.864;19.084;2023-03-03T01:29:54;153.70;;;59.07;;
68108;SDS011;54893;49.864;19.084;2023-03-03T01:34:55;156.82;;;60.30;;
68108;SDS011;54893;49.864;19.084;2023-03-03T01:39:56;153.83;;;59.60;;
68108;SDS011;54893;49.864;19.084;2023-03-03T01:45:09;155.83;;;58.37;;
68108;SDS011;54893;49.864;19.084;2023-03-03T01:55:45;166.98;;;64.13;;
68108;SDS011;54893;49.864;19.084;2023-03-03T02:00:48;169.20;;;67.82;;
68108;SDS011;54893;49.864;19.084;2023-03-03T02:05:51;174.77;;;62.83;;
68108;SDS011;54893;49.864;19.084;2023-03-03T02:10:55;150.97;;;55.33;;
68108;SDS011;54893;49.864;19.084;2023-03-03T02:15:56;141.75;;;51.20;;
68108;SDS011;54893;49.864;19.084;2023-03-03T02:21:18;145.70;;;50.73;;
68108;SDS011;54893;49.864;19.084;2023-03-03T02:26:24;149.20;;;53.40;;
68108;SDS011;54893;49.864;19.084;2023-03-03T02:31:27;143.35;;;51.35;;
68108;SDS011;54893;49.864;19.084;2023-03-03T02:36:35;144.53;;;51.70;;
68108;SDS011;54893;49.864;19.084;2023-03-03T02:46:41;150.40;;;51.27;;
68108;SDS011;54893;49.864;19.084;2023-03-03T02:51:43;148.90;;;51.15;;
68108;SDS011;54893;49.864;19.084;2023-03-03T02:56:44;145.23;;;52.10;;
68108;SDS011;54893;49.864;19.084;2023-03-03T03:01:45;147.07;;;49.97;;
68108;SDS011;54893;49.864;19.084;2023-03-03T03:06:46;141.88;;;51.28;;
68108;SDS011;54893;49.864;19.084;2023-03-03T03:11:46;153.23;;;54.43;;
68108;SDS011;54893;49.864;19.084;2023-03-03T03:16:47;162.40;;;55.53;;
68108;SDS011;54893;49.864;19.084;2023-03-03T03:21:47;162.67;;;57.47;;
68108;SDS011;54893;49.864;19.084;2023-03-03T03:26:47;163.93;;;57.67;;
68108;SDS011;54893;49.864;19.084;2023-03-03T03:31:47;162.23;;;58.33;;
68108;SDS011;54893;49.864;19.084;2023-03-03T03:36:48;163.53;;;59.37;;
68108;SDS011;54893;49.864;19.084;2023-03-03T03:41:48;158.07;;;56.80;;
68108;SDS011;54893;49.864;19.084;2023-03-03T03:46:49;132.52;;;51.17;;
68108;SDS011;54893;49.864;19.084;2023-03-03T03:51:50;135.23;;;47.13;;
68108;SDS011;54893;49.864;19.084;2023-03-03T03:56:50;147.60;;;52.17;;
68108;SDS011;54893;49.864;19.084;2023-03-03T04:01:50;148.23;;;56.17;;
68108;SDS011;54893;49.864;19.084;2023-03-03T04:06:51;139.13;;;54.03;;
68108;SDS011;54893;49.864;19.084;2023-03-03T04:11:51;143.73;;;52.22;;
68108;SDS011;54893;49.864;19.084;2023-03-03T04:16:51;155.97;;;58.33;;
68108;SDS011;54893;49.864;19.084;2023-03-03T04:21:52;151.43;;;57.35;;
68108;SDS011;54893;49.864;19.084;2023-03-03T04:26:52;147.90;;;54.57;;
68108;SDS011;54893;49.864;19.084;2023-03-03T04:31:52;145.18;;;52.53;;
68108;SDS011;54893;49.864;19.084;2023-03-03T04:36:53;163.88;;;59.63;;
68108;SDS011;54893;49.864;19.084;2023-03-03T04:41:54;169.63;;;69.20;;
68108;SDS011;54893;49.864;19.084;2023-03-03T04:46:55;176.20;;;69.27;;
68108;SDS011;54893;49.864;19.084;2023-03-03T04:51:55;169.37;;;68.73;;
68108;SDS011;54893;49.864;19.084;2023-03-03T04:56:56;175.90;;;74.82;;
68108;SDS011;54893;49.864;19.084;2023-03-03T05:01:57;164.23;;;65.63;;
68108;SDS011;54893;49.864;19.084;2023-03-03T05:06:57;149.13;;;57.13;;
68108;SDS011;54893;49.864;19.084;2023-03-03T05:11:58;136.33;;;51.47;;
68108;SDS011;54893;49.864;19.084;2023-03-03T05:16:58;137.73;;;50.47;;
68108;SDS011;54893;49.864;19.084;2023-03-03T05:21:59;144.20;;;53.80;;
68108;SDS011;54893;49.864;19.084;2023-03-03T05:26:59;133.00;;;46.03;;
68108;SDS011;54893;49.864;19.084;2023-03-03T05:32:00;151.40;;;56.63;;
68108;SDS011;54893;49.864;19.084;2023-03-03T05:37:00;141.93;;;52.25;;
68108;SDS011;54893;49.864;19.084;2023-03-03T05:42:02;175.30;;;72.13;;
68108;SDS011;54893;49.864;19.084;2023-03-03T05:47:03;173.07;;;69.97;;
68108;SDS011;54893;49.864;19.084;2023-03-03T05:52:03;169.37;;;64.40;;
68108;SDS011;54893;49.864;19.084;2023-03-03T05:57:04;141.13;;;49.07;;
68108;SDS011;54893;49.864;19.084;2023-03-03T06:02:04;172.83;;;69.30;;
68108;SDS011;54893;49.864;19.084;2023-03-03T06:07:05;137.13;;;51.00;;
68108;SDS011;54893;49.864;19.084;2023-03-03T06:12:05;127.80;;;48.43;;
68108;SDS011;54893;49.864;19.084;2023-03-03T06:17:06;125.43;;;43.22;;
68108;SDS011;54893;49.864;19.084;2023-03-03T06:22:07;130.47;;;50.30;;
68108;SDS011;54893;49.864;19.084;2023-03-03T06:27:08;145.97;;;56.87;;
68108;SDS011;54893;49.864;19.084;2023-03-03T06:32:09;164.68;;;68.53;;
68108;SDS011;54893;49.864;19.084;2023-03-03T06:37:09;137.40;;;52.73;;
68108;SDS011;54893;49.864;19.084;2023-03-03T06:42:10;128.73;;;50.67;;
68108;SDS011;54893;49.864;19.084;2023-03-03T06:47:10;142.77;;;57.03;;
68108;SDS011;54893;49.864;19.084;2023-03-03T06:52:12;132.68;;;51.42;;
68108;SDS011;54893;49.864;19.084;2023-03-03T06:57:32;154.80;;;58.92;;
68108;SDS011;54893;49.864;19.084;2023-03-03T07:02:33;180.88;;;80.90;;
68108;SDS011;54893;49.864;19.084;2023-03-03T07:07:33;179.57;;;76.40;;
68108;SDS011;54893;49.864;19.084;2023-03-03T07:12:34;174.65;;;77.32;;
68108;SDS011;54893;49.864;19.084;2023-03-03T07:17:34;168.77;;;68.33;;
68108;SDS011;54893;49.864;19.084;2023-03-03T07:22:36;178.73;;;73.00;;
68108;SDS011;54893;49.864;19.084;2023-03-03T07:27:36;183.53;;;68.47;;
68108;SDS011;54893;49.864;19.084;2023-03-03T07:32:46;189.73;;;75.83;;
68108;SDS011;54893;49.864;19.084;2023-03-03T07:37:47;164.57;;;63.38;;
68108;SDS011;54893;49.864;19.084;2023-03-03T07:42:47;172.23;;;70.87;;
68108;SDS011;54893;49.864;19.084;2023-03-03T07:47:49;180.73;;;72.78;;
68108;SDS011;54893;49.864;19.084;2023-03-03T07:58:05;169.57;;;66.60;;
68108;SDS011;54893;49.864;19.084;2023-03-03T08:03:20;164.88;;;68.03;;
68108;SDS011;54893;49.864;19.084;2023-03-03T08:08:30;154.23;;;57.07;;
68108;SDS011;54893;49.864;19.084;2023-03-03T08:13:37;114.03;;;41.77;;
68108;SDS011;54893;49.864;19.084;2023-03-03T08:18:49;171.98;;;72.30;;
68108;SDS011;54893;49.864;19.084;2023-03-03T08:23:52;210.35;;;91.75;;
68108;SDS011;54893;49.864;19.084;2023-03-03T08:28:53;177.07;;;70.77;;
68108;SDS011;54893;49.864;19.084;2023-03-03T08:33:54;197.07;;;76.50;;
68108;SDS011;54893;49.864;19.084;2023-03-03T08:38:55;157.75;;;62.22;;
68108;SDS011;54893;49.864;19.084;2023-03-03T08:43:55;131.37;;;44.83;;
68108;SDS011;54893;49.864;19.084;2023-03-03T08:48:55;259.60;;;87.30;;
68108;SDS011;54893;49.864;19.084;2023-03-03T08:53:56;328.00;;;115.97;;
68108;SDS011;54893;49.864;19.084;2023-03-03T08:58:56;251.75;;;82.50;;
68108;SDS011;54893;49.864;19.084;2023-03-03T09:03:56;327.07;;;102.67;;
68108;SDS011;54893;49.864;19.084;2023-03-03T09:08:57;215.63;;;60.43;;
68108;SDS011;54893;49.864;19.084;2023-03-03T09:14:14;235.37;;;70.63;;
68108;SDS011;54893;49.864;19.084;2023-03-03T09:19:29;228.70;;;61.83;;
68108;SDS011;54893;49.864;19.084;2023-03-03T09:24:31;332.23;;;84.95;;
68108;SDS011;54893;49.864;19.084;2023-03-03T09:29:38;276.40;;;65.33;;
68108;SDS011;54893;49.864;19.084;2023-03-03T09:34:40;314.40;;;74.93;;
68108;SDS011;54893;49.864;19.084;2023-03-03T09:39:41;431.67;;;97.60;;
68108;SDS011;54893;49.864;19.084;2023-03-03T10:21:55;313.83;;;79.77;;
68108;SDS011;54893;49.864;19.084;2023-03-03T10:27:13;198.05;;;52.80;;
68108;SDS011;54893;49.864;19.084;2023-03-03T10:32:57;127.68;;;35.33;;
68108;SDS011;54893;49.864;19.084;2023-03-03T11:04:31;146.52;;;42.38;;
68108;SDS011;54893;49.864;19.084;2023-03-03T11:09:45;253.05;;;84.13;;
68108;SDS011;54893;49.864;19.084;2023-03-03T11:20:02;227.17;;;72.57;;
68108;SDS011;54893;49.864;19.084;2023-03-03T11:40:49;178.35;;;56.15;;
68108;SDS011;54893;49.864;19.084;2023-03-03T11:45:51;150.53;;;48.37;;
68108;SDS011;54893;49.864;19.084;2023-03-03T11:51:01;135.82;;;38.92;;
68108;SDS011;54893;49.864;19.084;2023-03-03T12:01:27;181.70;;;54.55;;
68108;SDS011;54893;49.864;19.084;2023-03-03T12:28:36;152.30;;;38.83;;
68108;SDS011;54893;49.864;19.084;2023-03-03T12:33:54;195.07;;;47.47;;
68108;SDS011;54893;49.864;19.084;2023-03-03T12:39:05;218.60;;;51.50;;
68108;SDS011;54893;49.864;19.084;2023-03-03T12:44:20;195.27;;;45.78;;
68108;SDS011;54893;49.864;19.084;2023-03-03T12:49:24;175.18;;;40.13;;
68108;SDS011;54893;49.864;19.084;2023-03-03T13:04:52;232.87;;;53.20;;
68108;SDS011;54893;49.864;19.084;2023-03-03T13:10:45;196.50;;;45.20;;
68108;SDS011;54893;49.864;19.084;2023-03-03T13:15:41;246.02;;;53.67;;
68108;SDS011;54893;49.864;19.084;2023-03-03T13:26:16;212.82;;;44.15;;
68108;SDS011;54893;49.864;19.084;2023-03-03T13:31:22;234.43;;;44.53;;
68108;SDS011;54893;49.864;19.084;2023-03-03T13:42:02;337.15;;;62.65;;
68108;SDS011;54893;49.864;19.084;2023-03-03T13:52:23;303.42;;;53.20;;
68108;SDS011;54893;49.864;19.084;2023-03-03T14:08:00;428.90;;;91.82;;
68108;SDS011;54893;49.864;19.084;2023-03-03T14:23:50;160.17;;;35.87;;
68108;SDS011;54893;49.864;19.084;2023-03-03T14:29:03;225.98;;;50.13;;
68108;SDS011;54893;49.864;19.084;2023-03-03T14:39:38;173.32;;;41.63;;
68108;SDS011;54893;49.864;19.084;2023-03-03T14:44:52;191.55;;;50.38;;
68108;SDS011;54893;49.864;19.084;2023-03-03T14:49:54;148.93;;;35.80;;
68108;SDS011;54893;49.864;19.084;2023-03-03T14:55:04;150.85;;;41.55;;
68108;SDS011;54893;49.864;19.084;2023-03-03T15:00:31;123.90;;;34.08;;
68108;SDS011;54893;49.864;19.084;2023-03-03T15:05:32;156.43;;;44.40;;
68108;SDS011;54893;49.864;19.084;2023-03-03T15:10:42;127.40;;;33.27;;
68108;SDS011;54893;49.864;19.084;2023-03-03T15:15:51;127.53;;;31.25;;
68108;SDS011;54893;49.864;19.084;2023-03-03T15:26:48;129.10;;;34.97;;
68108;SDS011;54893;49.864;19.084;2023-03-03T15:36:52;149.55;;;42.22;;
68108;SDS011;54893;49.864;19.084;2023-03-03T15:42:04;136.27;;;39.03;;
68108;SDS011;54893;49.864;19.084;2023-03-03T16:03:12;160.93;;;53.83;;
68108;SDS011;54893;49.864;19.084;2023-03-03T16:08:20;129.52;;;33.42;;
68108;SDS011;54893;49.864;19.084;2023-03-03T16:23:50;104.28;;;27.92;;
68108;SDS011;54893;49.864;19.084;2023-03-03T16:29:00;118.80;;;33.75;;
68108;SDS011;54893;49.864;19.084;2023-03-03T16:39:30;105.50;;;27.77;;
68108;SDS011;54893;49.864;19.084;2023-03-03T16:55:35;116.38;;;31.23;;
68108;SDS011;54893;49.864;19.084;2023-03-03T17:00:50;109.07;;;29.30;;
68108;SDS011;54893;49.864;19.084;2023-03-03T17:06:00;122.27;;;35.13;;
68108;SDS011;54893;49.864;19.084;2023-03-03T17:32:32;113.33;;;35.07;;
68108;SDS011;54893;49.864;19.084;2023-03-03T18:05:32;102.97;;;29.23;;
68108;SDS011;54893;49.864;19.084;2023-03-03T18:22:06;109.28;;;32.50;;
68108;SDS011;54893;49.864;19.084;2023-03-03T18:32:24;115.70;;;36.38;;
68108;SDS011;54893;49.864;19.084;2023-03-03T18:37:40;109.50;;;34.45;;
68108;SDS011;54893;49.864;19.084;2023-03-03T18:42:44;104.03;;;31.00;;
68108;SDS011;54893;49.864;19.084;2023-03-03T18:53:11;91.33;;;26.50;;
68108;SDS011;54893;49.864;19.084;2023-03-03T19:03:30;94.13;;;27.95;;
68108;SDS011;54893;49.864;19.084;2023-03-03T19:08:53;92.57;;;27.90;;
68108;SDS011;54893;49.864;19.084;2023-03-03T19:14:14;96.28;;;27.30;;
68108;SDS011;54893;49.864;19.084;2023-03-03T19:19:32;103.93;;;31.37;;
68108;SDS011;54893;49.864;19.084;2023-03-03T19:35:36;87.97;;;25.83;;
68108;SDS011;54893;49.864;19.084;2023-03-03T19:46:35;93.67;;;29.77;;
68108;SDS011;54893;49.864;19.084;2023-03-03T19:52:05;82.85;;;25.00;;
68108;SDS011;54893;49.864;19.084;2023-03-03T20:08:11;100.47;;;32.92;;
68108;SDS011;54893;49.864;19.084;2023-03-03T20:29:25;77.17;;;21.77;;
68108;SDS011;54893;49.864;19.084;2023-03-03T20:56:18;92.57;;;27.40;;
68108;SDS011;54893;49.864;19.084;2023-03-03T21:06:41;99.00;;;28.77;;
68108;SDS011;54893;49.864;19.084;2023-03-03T21:11:42;80.77;;;23.47;;
68108;SDS011;54893;49.864;19.084;2023-03-03T21:16:43;93.70;;;27.38;;
68108;SDS011;54893;49.864;19.084;2023-03-03T21:21:43;101.13;;;31.70;;
68108;SDS011;54893;49.864;19.084;2023-03-03T21:37:03;79.18;;;22.80;;
68108;SDS011;54893;49.864;19.084;2023-03-03T21:47:07;79.15;;;22.00;;
68108;SDS011;54893;49.864;19.084;2023-03-03T21:52:10;90.18;;;26.80;;
68108;SDS011;54893;49.864;19.084;2023-03-03T21:57:13;85.77;;;24.03;;
68108;SDS011;54893;49.864;19.084;2023-03-03T22:02:13;86.33;;;23.10;;
68108;SDS011;54893;49.864;19.084;2023-03-03T22:07:13;79.77;;;22.67;;
68108;SDS011;54893;49.864;19.084;2023-03-03T22:12:14;82.43;;;22.97;;
68108;SDS011;54893;49.864;19.084;2023-03-03T22:17:14;91.33;;;28.10;;
68108;SDS011;54893;49.864;19.084;2023-03-03T22:22:15;76.27;;;18.97;;
68108;SDS011;54893;49.864;19.084;2023-03-03T22:27:15;87.97;;;21.93;;
68108;SDS011;54893;49.864;19.084;2023-03-03T22:32:15;81.13;;;22.10;;
68108;SDS011;54893;49.864;19.084;2023-03-03T22:37:16;91.00;;;23.40;;
68108;SDS011;54893;49.864;19.084;2023-03-03T22:42:16;85.53;;;22.37;;
68108;SDS011;54893;49.864;19.084;2023-03-03T22:47:17;63.50;;;16.00;;
68108;SDS011;54893;49.864;19.084;2023-03-03T22:52:17;67.77;;;17.60;;
68108;SDS011;54893;49.864;19.084;2023-03-03T22:57:18;79.03;;;23.30;;
68108;SDS011;54893;49.864;19.084;2023-03-03T23:02:18;77.13;;;19.23;;
68108;SDS011;54893;49.864;19.084;2023-03-03T23:07:18;69.77;;;17.80;;
68108;SDS011;54893;49.864;19.084;2023-03-03T23:12:19;66.77;;;19.63;;
68108;SDS011;54893;49.864;19.084;2023-03-03T23:17:19;62.40;;;14.80;;
68108;SDS011;54893;49.864;19.084;2023-03-03T23:22:19;68.83;;;18.57;;
68108;SDS011;54893;49.864;19.084;2023-03-03T23:27:20;50.90;;;14.30;;
68108;SDS011;54893;49.864;19.084;2023-03-03T23:32:21;67.82;;;18.05;;
68108;SDS011;54893;49.864;19.084;2023-03-03T23:37:25;60.13;;;18.17;;
68108;SDS011;54893;49.864;19.084;2023-03-03T23:42:25;60.45;;;16.42;;
68108;SDS011;54893;49.864;19.084;2023-03-03T23:47:26;55.25;;;15.15;;
68108;SDS011;54893;49.864;19.084;2023-03-03T23:52:27;53.00;;;15.87;;
68108;SDS011;54893;49.864;19.084;2023-03-03T23:57:27;53.10;;;16.40;;
